createdAt,value
2019-03-31T00:04:06.365Z,57.48
2019-03-31T00:09:01.026Z,57.85
2019-03-31T00:13:56.395Z,58.33
2019-03-31T00:18:50.982Z,58.45
2019-03-31T00:23:45.555Z,58.77
2019-03-31T00:28:40.247Z,58.93
2019-03-31T00:33:34.895Z,59.44
2019-03-31T00:38:29.498Z,60.03
2019-03-31T00:43:24.075Z,60.01
2019-03-31T00:48:18.673Z,60.16
2019-03-31T00:53:13.246Z,60.85
2019-03-31T00:58:07.856Z,61.14
2019-03-31T01:03:02.434Z,61.60
2019-03-31T01:07:57.263Z,61.54
2019-03-31T01:12:52.352Z,61.38
2019-03-31T01:17:47.619Z,61.26
2019-03-31T01:22:42.282Z,61.98
2019-03-31T01:27:37.582Z,61.06
2019-03-31T01:32:32.305Z,60.90
2019-03-31T01:37:27.614Z,61.52
2019-03-31T01:42:22.327Z,62.69
2019-03-31T01:47:16.991Z,63.33
2019-03-31T01:52:11.905Z,63.20
2019-03-31T01:57:06.752Z,63.08
2019-03-31T02:02:04.459Z,64.25
2019-03-31T02:06:57.948Z,65.25
2019-03-31T02:11:52.513Z,66.15
2019-03-31T02:16:47.124Z,65.61
2019-03-31T02:21:41.687Z,65.75
2019-03-31T02:26:36.306Z,66.10
2019-03-31T02:31:30.955Z,66.17
2019-03-31T02:36:25.855Z,66.82
2019-03-31T02:41:20.452Z,67.23
2019-03-31T02:46:15.584Z,67.72
2019-03-31T02:51:10.339Z,67.06
2019-03-31T02:56:06.302Z,67.58
2019-03-31T03:01:01.188Z,67.77
2019-03-31T03:05:59.542Z,68.33
2019-03-31T03:10:54.629Z,68.19
2019-03-31T03:16:08.903Z,68.77
2019-03-31T03:21:03.451Z,68.85
2019-03-31T03:25:58.470Z,69.32
2019-03-31T03:30:53.120Z,69.64
2019-03-31T03:35:47.927Z,69.24
2019-03-31T03:40:42.522Z,70.02
2019-03-31T03:45:37.308Z,70.49
2019-03-31T03:50:31.913Z,71.38
2019-03-31T03:55:26.556Z,72.08
2019-03-31T04:00:21.141Z,72.24
2019-03-31T04:05:15.742Z,70.80
2019-03-31T04:10:43.374Z,70.72
2019-03-31T04:15:38.029Z,71.78
2019-03-31T04:20:32.623Z,74.33
2019-03-31T04:25:27.197Z,74.45
2019-03-31T04:30:21.783Z,74.89
2019-03-31T04:35:16.381Z,75.88
2019-03-31T04:40:10.956Z,75.83
2019-03-31T04:45:07.280Z,75.30
2019-03-31T04:50:01.941Z,76.06
2019-03-31T04:54:56.519Z,77.02
2019-03-31T04:59:51.106Z,77.28
2019-03-31T05:04:45.685Z,76.60
2019-03-31T05:09:40.289Z,76.80
2019-03-31T05:14:34.879Z,77.51
2019-03-31T05:19:29.439Z,77.91
2019-03-31T05:24:24.035Z,77.89
2019-03-31T05:29:18.719Z,75.16
2019-03-31T05:34:19.208Z,72.91
2019-03-31T05:39:09.617Z,70.57
2019-03-31T05:44:05.999Z,68.89
2019-03-31T05:49:00.794Z,65.94
2019-03-31T05:53:55.366Z,63.43
2019-03-31T05:58:49.959Z,61.30
2019-03-31T06:03:44.528Z,59.01
2019-03-31T06:08:39.145Z,56.94
2019-03-31T06:13:33.833Z,55.12
2019-03-31T06:18:28.433Z,53.89
2019-03-31T06:23:23.015Z,52.72
2019-03-31T06:28:17.684Z,53.78
2019-03-31T06:33:12.273Z,53.83
2019-03-31T06:38:19.152Z,53.60
2019-03-31T06:43:13.742Z,53.98
2019-03-31T06:48:08.426Z,54.04
2019-03-31T06:53:03.011Z,53.95
2019-03-31T06:57:57.605Z,55.32
2019-03-31T07:02:52.188Z,56.92
2019-03-31T07:07:46.798Z,58.99
2019-03-31T07:12:41.377Z,59.20
2019-03-31T07:17:35.978Z,58.91
2019-03-31T07:22:30.567Z,57.73
2019-03-31T07:27:25.177Z,57.36
2019-03-31T07:32:19.767Z,56.59
2019-03-31T07:37:14.367Z,55.19
2019-03-31T07:42:10.125Z,55.44
2019-03-31T07:47:04.928Z,54.03
2019-03-31T07:51:59.510Z,54.20
2019-03-31T07:56:54.105Z,54.44
2019-03-31T08:01:48.689Z,54.15
2019-03-31T08:06:43.325Z,53.34
2019-03-31T08:11:37.906Z,52.93
2019-03-31T08:16:32.581Z,51.13
2019-03-31T08:21:27.166Z,51.83
2019-03-31T08:26:21.793Z,52.54
2019-03-31T08:31:16.370Z,52.51
2019-03-31T08:36:10.982Z,51.78
2019-03-31T08:41:05.628Z,51.52
2019-03-31T08:46:01.002Z,51.27
2019-03-31T08:50:55.583Z,51.94
2019-03-31T08:55:50.190Z,52.10
2019-03-31T09:00:49.088Z,53.98
2019-03-31T09:05:43.705Z,52.97
2019-03-31T09:10:38.287Z,52.93
2019-03-31T09:15:32.899Z,53.11
2019-03-31T09:20:27.486Z,53.22
2019-03-31T09:25:22.088Z,52.14
2019-03-31T09:30:18.381Z,51.25
2019-03-31T09:35:13.179Z,50.92
2019-03-31T09:40:10.389Z,50.45
2019-03-31T09:45:07.520Z,50.11
2019-03-31T09:50:02.105Z,49.34
2019-03-31T09:54:56.712Z,48.17
2019-03-31T09:59:51.296Z,46.92
2019-03-31T10:04:45.908Z,46.45
2019-03-31T10:09:40.963Z,46.16
2019-03-31T10:14:35.548Z,45.85
2019-03-31T10:19:30.170Z,45.91
2019-03-31T10:24:24.758Z,45.45
2019-03-31T10:29:19.411Z,45.39
2019-03-31T10:34:14.004Z,45.26
2019-03-31T10:39:09.695Z,45.07
2019-03-31T10:44:04.608Z,45.84
2019-03-31T10:48:59.189Z,45.37
2019-03-31T10:53:53.779Z,44.61
2019-03-31T10:58:48.370Z,44.06
2019-03-31T11:03:42.970Z,43.86
2019-03-31T11:08:37.564Z,44.21
2019-03-31T11:13:32.159Z,42.81
2019-03-31T11:18:26.745Z,42.50
2019-03-31T11:23:23.004Z,41.73
2019-03-31T11:28:17.674Z,41.12
2019-03-31T11:33:12.277Z,40.84
2019-03-31T11:38:06.858Z,39.92
2019-03-31T11:43:01.442Z,39.74
2019-03-31T11:47:56.041Z,39.20
2019-03-31T11:52:50.631Z,39.02
2019-03-31T11:57:46.049Z,38.20
2019-03-31T12:02:40.648Z,37.49
2019-03-31T12:07:46.061Z,37.26
2019-03-31T12:12:31.556Z,36.89
2019-03-31T12:17:26.131Z,36.47
2019-03-31T12:22:20.737Z,35.81
2019-03-31T12:27:15.331Z,35.48
2019-03-31T12:32:09.930Z,35.72
2019-03-31T12:37:04.575Z,35.27
2019-03-31T12:41:59.174Z,33.10
2019-03-31T12:46:56.152Z,34.88
2019-03-31T12:51:50.075Z,35.12
2019-03-31T12:56:44.662Z,30.69
2019-03-31T13:01:39.252Z,31.19
2019-03-31T13:06:33.824Z,33.40
2019-03-31T13:11:28.447Z,33.24
2019-03-31T13:16:23.004Z,31.78
2019-03-31T13:21:17.620Z,30.57
2019-03-31T13:26:12.198Z,30.31
2019-03-31T13:31:06.798Z,29.78
2019-03-31T13:36:01.377Z,29.86
2019-03-31T13:40:55.992Z,29.89
2019-03-31T13:45:50.564Z,29.58
2019-03-31T13:50:45.159Z,29.59
2019-03-31T13:55:39.729Z,29.46
2019-03-31T14:00:38.370Z,28.85
2019-03-31T14:05:33.046Z,28.14
2019-03-31T14:10:27.646Z,28.04
2019-03-31T14:15:22.233Z,27.86
2019-03-31T14:20:16.891Z,27.77
2019-03-31T14:25:11.605Z,27.21
2019-03-31T14:30:09.412Z,27.45
2019-03-31T14:35:04.941Z,28.04
2019-03-31T14:39:59.553Z,27.83
2019-03-31T14:44:54.217Z,27.84
2019-03-31T14:49:48.807Z,27.67
2019-03-31T14:54:43.385Z,27.06
2019-03-31T14:59:37.976Z,26.64
2019-03-31T15:04:32.540Z,27.22
2019-03-31T15:09:27.140Z,26.99
2019-03-31T15:14:21.725Z,27.28
2019-03-31T15:19:16.326Z,27.54
2019-03-31T15:24:10.904Z,27.81
2019-03-31T15:29:05.768Z,28.24
2019-03-31T15:34:00.408Z,28.31
2019-03-31T15:39:08.152Z,28.88
2019-03-31T15:43:51.342Z,29.15
2019-03-31T15:48:45.946Z,29.37
2019-03-31T15:53:40.536Z,29.69
2019-03-31T15:58:35.134Z,29.48
2019-03-31T16:03:29.751Z,29.29
2019-03-31T16:08:24.307Z,29.38
2019-03-31T16:13:19.068Z,29.15
2019-03-31T16:18:13.665Z,29.64
2019-03-31T16:23:08.244Z,29.49
2019-03-31T16:28:02.835Z,29.29
2019-03-31T16:32:57.413Z,29.08
2019-03-31T16:37:52.094Z,29.31
2019-03-31T16:42:46.693Z,29.35
2019-03-31T16:47:41.316Z,29.70
2019-03-31T16:52:35.918Z,29.22
2019-03-31T16:57:30.537Z,29.39
2019-03-31T17:02:25.110Z,29.54
2019-03-31T17:07:19.704Z,29.47
2019-03-31T17:12:14.355Z,29.64
2019-03-31T17:17:08.989Z,29.85
2019-03-31T17:22:03.571Z,30.10
2019-03-31T17:26:58.155Z,30.58
2019-03-31T17:31:52.727Z,30.74
2019-03-31T17:36:47.324Z,31.39
2019-03-31T17:41:41.906Z,32.12
2019-03-31T17:46:36.484Z,32.03
2019-03-31T17:51:31.065Z,32.55
2019-03-31T17:56:25.666Z,33.15
2019-03-31T18:01:20.247Z,33.71
2019-03-31T18:06:14.856Z,34.06
2019-03-31T18:11:09.439Z,34.34
2019-03-31T18:16:04.255Z,34.70
2019-03-31T18:21:00.131Z,34.72
2019-03-31T18:25:54.727Z,35.22
2019-03-31T18:30:49.303Z,35.64
2019-03-31T18:35:43.915Z,35.86
2019-03-31T18:40:39.239Z,36.19
2019-03-31T18:45:33.829Z,36.00
2019-03-31T18:50:28.416Z,36.18
2019-03-31T18:55:40.844Z,36.51
2019-03-31T19:00:37.077Z,36.82
2019-03-31T19:05:49.093Z,36.70
2019-03-31T19:10:58.428Z,36.90
2019-03-31T19:16:10.752Z,36.81
2019-03-31T19:21:11.455Z,37.08
2019-03-31T19:26:06.701Z,37.53
2019-03-31T19:31:18.791Z,37.45
2019-03-31T19:36:30.881Z,37.84
2019-03-31T19:41:39.142Z,37.97
2019-03-31T19:46:45.583Z,38.25
2019-03-31T19:51:58.036Z,38.58
2019-03-31T19:57:05.450Z,38.52
2019-03-31T20:02:19.776Z,38.98
2019-03-31T20:07:31.310Z,39.27
2019-03-31T20:12:30.191Z,39.34
2019-03-31T20:17:29.596Z,39.20
2019-03-31T20:22:34.331Z,39.45
2019-03-31T20:27:39.806Z,39.41
2019-03-31T20:32:52.051Z,39.97
2019-03-31T20:37:54.032Z,39.77
2019-03-31T20:42:48.408Z,39.69
2019-03-31T20:47:42.989Z,40.55
2019-03-31T20:52:37.606Z,40.47
2019-03-31T20:57:32.207Z,39.99
2019-03-31T21:02:26.786Z,41.14
2019-03-31T21:07:21.371Z,41.49
2019-03-31T21:12:15.966Z,42.17
2019-03-31T21:17:10.627Z,41.91
2019-03-31T21:22:05.324Z,41.95
2019-03-31T21:26:59.920Z,41.86
2019-03-31T21:31:55.477Z,42.60
2019-03-31T21:36:50.249Z,43.67
2019-03-31T21:41:44.856Z,43.44
2019-03-31T21:46:39.479Z,43.02
2019-03-31T21:51:34.071Z,44.48
2019-03-31T21:56:28.730Z,44.88
2019-03-31T22:01:23.481Z,45.06
2019-03-31T22:06:18.073Z,45.02
2019-03-31T22:11:13.236Z,45.05
2019-03-31T22:16:07.849Z,45.63
2019-03-31T22:21:02.973Z,45.49
2019-03-31T22:25:57.639Z,45.77
2019-03-31T22:30:52.230Z,45.73
2019-03-31T22:36:05.942Z,46.23
2019-03-31T22:41:00.536Z,46.62
2019-03-31T22:45:55.137Z,47.02
2019-03-31T22:50:49.714Z,46.97
2019-03-31T22:55:44.452Z,47.18
2019-03-31T23:00:39.033Z,47.55
2019-03-31T23:05:34.414Z,47.40
2019-03-31T23:10:28.991Z,47.73
2019-03-31T23:15:23.602Z,48.13
2019-03-31T23:20:18.189Z,48.36
2019-03-31T23:25:13.183Z,48.41
2019-03-31T23:30:10.743Z,48.31
2019-03-31T23:35:07.584Z,48.52
2019-03-31T23:40:02.557Z,48.75
2019-03-31T23:44:58.212Z,49.33
2019-03-31T23:49:52.805Z,49.49
2019-03-31T23:54:47.441Z,50.32
2019-03-31T23:59:42.018Z,51.51
